Weather at Nakashibetsu Airport

Public forecast

Using degrees Celsius for public forecast. Weather courtesy of forecast.io.

Current aviation weather report (METAR) for Nakashibetsu Airport

Report is more than 6 hours old.

Retrieved 2021/04/12 09:00 UTC (6 hours ago):

RJCN 120900Z 27006KT CAVOK 09/M04 Q1025

Closest aviation forecast (TAF) to Nakashibetsu Airport

Closest forecast is Memanbetsu Airport, 39.0 nm (72.3 km) WNW. Retrieved 2021/04/12 12:30 UTC (3 hours ago):

TAF RJCM 121112Z 1212/1318 19010KT 9999 FEW050 BECMG 1220/1222 19020KT TEMPO 1303/1312 18028G38KT